sensor_id;sensor_type;location;lat;lon;timestamp;P1;durP1;ratioP1;P2;durP2;ratioP2
11090;SDS011;5599;52.210;21.046;2023-01-30T00:00:15;21.13;;;16.47;;
11090;SDS011;5599;52.210;21.046;2023-01-30T00:02:45;19.47;;;16.37;;
11090;SDS011;5599;52.210;21.046;2023-01-30T00:05:14;18.70;;;15.53;;
11090;SDS011;5599;52.210;21.046;2023-01-30T00:07:43;20.03;;;15.77;;
11090;SDS011;5599;52.210;21.046;2023-01-30T00:10:16;19.73;;;16.47;;
11090;SDS011;5599;52.210;21.046;2023-01-30T00:12:46;18.93;;;15.03;;
11090;SDS011;5599;52.210;21.046;2023-01-30T00:15:15;21.07;;;16.70;;
11090;SDS011;5599;52.210;21.046;2023-01-30T00:17:44;19.50;;;16.20;;
11090;SDS011;5599;52.210;21.046;2023-01-30T00:20:14;19.03;;;15.23;;
11090;SDS011;5599;52.210;21.046;2023-01-30T00:22:43;20.60;;;15.67;;
11090;SDS011;5599;52.210;21.046;2023-01-30T00:25:28;20.00;;;15.60;;
11090;SDS011;5599;52.210;21.046;2023-01-30T00:27:58;20.03;;;15.63;;
11090;SDS011;5599;52.210;21.046;2023-01-30T00:30:28;18.70;;;15.77;;
11090;SDS011;5599;52.210;21.046;2023-01-30T00:32:58;21.40;;;15.60;;
11090;SDS011;5599;52.210;21.046;2023-01-30T00:35:28;18.43;;;15.33;;
11090;SDS011;5599;52.210;21.046;2023-01-30T00:37:57;18.60;;;15.60;;
11090;SDS011;5599;52.210;21.046;2023-01-30T00:40:28;17.63;;;14.90;;
11090;SDS011;5599;52.210;21.046;2023-01-30T00:42:58;16.90;;;13.63;;
11090;SDS011;5599;52.210;21.046;2023-01-30T00:45:45;18.57;;;15.10;;
11090;SDS011;5599;52.210;21.046;2023-01-30T00:48:32;19.00;;;14.07;;
11090;SDS011;5599;52.210;21.046;2023-01-30T00:51:01;18.67;;;15.07;;
11090;SDS011;5599;52.210;21.046;2023-01-30T00:53:31;15.70;;;13.80;;
11090;SDS011;5599;52.210;21.046;2023-01-30T00:56:01;18.13;;;14.33;;
11090;SDS011;5599;52.210;21.046;2023-01-30T00:58:31;16.87;;;14.13;;
11090;SDS011;5599;52.210;21.046;2023-01-30T01:01:02;16.07;;;14.23;;
11090;SDS011;5599;52.210;21.046;2023-01-30T01:03:31;16.93;;;13.90;;
11090;SDS011;5599;52.210;21.046;2023-01-30T01:06:00;15.10;;;12.73;;
11090;SDS011;5599;52.210;21.046;2023-01-30T01:08:29;15.30;;;12.93;;
11090;SDS011;5599;52.210;21.046;2023-01-30T01:10:59;15.37;;;13.23;;
11090;SDS011;5599;52.210;21.046;2023-01-30T01:13:29;16.97;;;13.40;;
11090;SDS011;5599;52.210;21.046;2023-01-30T01:15:59;15.40;;;12.50;;
11090;SDS011;5599;52.210;21.046;2023-01-30T01:18:28;15.10;;;12.37;;
11090;SDS011;5599;52.210;21.046;2023-01-30T01:20:57;14.17;;;12.17;;
11090;SDS011;5599;52.210;21.046;2023-01-30T01:23:26;14.13;;;12.10;;
11090;SDS011;5599;52.210;21.046;2023-01-30T01:25:56;15.83;;;12.30;;
11090;SDS011;5599;52.210;21.046;2023-01-30T01:28:30;14.93;;;13.03;;
11090;SDS011;5599;52.210;21.046;2023-01-30T01:30:59;15.50;;;12.10;;
11090;SDS011;5599;52.210;21.046;2023-01-30T01:33:34;14.57;;;11.60;;
11090;SDS011;5599;52.210;21.046;2023-01-30T01:36:04;15.23;;;12.97;;
11090;SDS011;5599;52.210;21.046;2023-01-30T01:38:34;13.73;;;12.27;;
11090;SDS011;5599;52.210;21.046;2023-01-30T01:41:03;15.97;;;12.10;;
11090;SDS011;5599;52.210;21.046;2023-01-30T01:43:36;13.30;;;11.37;;
11090;SDS011;5599;52.210;21.046;2023-01-30T01:46:07;13.73;;;12.33;;
11090;SDS011;5599;52.210;21.046;2023-01-30T01:48:43;14.30;;;11.63;;
11090;SDS011;5599;52.210;21.046;2023-01-30T01:51:15;15.67;;;11.57;;
11090;SDS011;5599;52.210;21.046;2023-01-30T01:53:48;12.93;;;10.93;;
11090;SDS011;5599;52.210;21.046;2023-01-30T01:56:22;11.77;;;10.47;;
11090;SDS011;5599;52.210;21.046;2023-01-30T01:58:54;12.93;;;10.70;;
11090;SDS011;5599;52.210;21.046;2023-01-30T02:01:26;12.57;;;11.20;;
11090;SDS011;5599;52.210;21.046;2023-01-30T02:03:57;12.33;;;10.23;;
11090;SDS011;5599;52.210;21.046;2023-01-30T02:06:30;12.23;;;9.97;;
11090;SDS011;5599;52.210;21.046;2023-01-30T02:09:01;11.53;;;10.10;;
11090;SDS011;5599;52.210;21.046;2023-01-30T02:11:36;11.77;;;10.47;;
11090;SDS011;5599;52.210;21.046;2023-01-30T02:14:12;12.17;;;9.87;;
11090;SDS011;5599;52.210;21.046;2023-01-30T02:16:43;11.00;;;9.87;;
11090;SDS011;5599;52.210;21.046;2023-01-30T02:19:16;11.30;;;10.03;;
11090;SDS011;5599;52.210;21.046;2023-01-30T02:31:11;13.93;;;11.67;;
11090;SDS011;5599;52.210;21.046;2023-01-30T02:33:59;14.10;;;11.50;;
11090;SDS011;5599;52.210;21.046;2023-01-30T02:36:40;12.80;;;11.13;;
11090;SDS011;5599;52.210;21.046;2023-01-30T02:39:21;14.07;;;11.93;;
11090;SDS011;5599;52.210;21.046;2023-01-30T02:42:02;13.23;;;11.43;;
11090;SDS011;5599;52.210;21.046;2023-01-30T02:44:41;14.80;;;12.13;;
11090;SDS011;5599;52.210;21.046;2023-01-30T02:47:16;13.07;;;11.23;;
11090;SDS011;5599;52.210;21.046;2023-01-30T02:49:54;14.50;;;11.20;;
11090;SDS011;5599;52.210;21.046;2023-01-30T02:52:30;14.47;;;10.93;;
11090;SDS011;5599;52.210;21.046;2023-01-30T02:55:05;13.20;;;11.20;;
11090;SDS011;5599;52.210;21.046;2023-01-30T02:57:37;11.57;;;10.37;;
11090;SDS011;5599;52.210;21.046;2023-01-30T03:00:07;11.90;;;10.57;;
11090;SDS011;5599;52.210;21.046;2023-01-30T03:02:43;12.90;;;10.63;;
11090;SDS011;5599;52.210;21.046;2023-01-30T03:05:36;13.40;;;10.57;;
11090;SDS011;5599;52.210;21.046;2023-01-30T03:08:29;12.90;;;10.80;;
11090;SDS011;5599;52.210;21.046;2023-01-30T03:11:03;13.90;;;10.63;;
11090;SDS011;5599;52.210;21.046;2023-01-30T03:13:40;12.77;;;10.60;;
11090;SDS011;5599;52.210;21.046;2023-01-30T03:16:17;12.50;;;9.93;;
11090;SDS011;5599;52.210;21.046;2023-01-30T03:18:51;13.33;;;10.37;;
11090;SDS011;5599;52.210;21.046;2023-01-30T03:21:21;12.33;;;10.23;;
11090;SDS011;5599;52.210;21.046;2023-01-30T03:23:51;12.93;;;10.33;;
11090;SDS011;5599;52.210;21.046;2023-01-30T03:26:21;13.07;;;10.50;;
11090;SDS011;5599;52.210;21.046;2023-01-30T03:28:53;12.50;;;10.27;;
11090;SDS011;5599;52.210;21.046;2023-01-30T03:31:23;13.40;;;10.77;;
11090;SDS011;5599;52.210;21.046;2023-01-30T03:33:55;13.10;;;11.13;;
11090;SDS011;5599;52.210;21.046;2023-01-30T03:36:24;13.47;;;11.43;;
11090;SDS011;5599;52.210;21.046;2023-01-30T03:38:55;14.53;;;11.77;;
11090;SDS011;5599;52.210;21.046;2023-01-30T03:41:24;14.83;;;11.20;;
11090;SDS011;5599;52.210;21.046;2023-01-30T03:43:53;16.37;;;11.20;;
11090;SDS011;5599;52.210;21.046;2023-01-30T03:46:23;15.40;;;11.87;;
11090;SDS011;5599;52.210;21.046;2023-01-30T03:48:52;14.43;;;11.30;;
11090;SDS011;5599;52.210;21.046;2023-01-30T03:51:23;15.07;;;11.80;;
11090;SDS011;5599;52.210;21.046;2023-01-30T03:53:53;15.00;;;12.17;;
11090;SDS011;5599;52.210;21.046;2023-01-30T03:56:22;16.77;;;12.13;;
11090;SDS011;5599;52.210;21.046;2023-01-30T03:58:52;14.03;;;12.50;;
11090;SDS011;5599;52.210;21.046;2023-01-30T04:01:29;16.60;;;12.90;;
11090;SDS011;5599;52.210;21.046;2023-01-30T04:04:00;16.30;;;12.70;;
11090;SDS011;5599;52.210;21.046;2023-01-30T04:06:29;15.17;;;12.33;;
11090;SDS011;5599;52.210;21.046;2023-01-30T04:08:59;16.93;;;13.50;;
11090;SDS011;5599;52.210;21.046;2023-01-30T04:11:40;15.93;;;12.97;;
11090;SDS011;5599;52.210;21.046;2023-01-30T04:14:09;16.30;;;12.57;;
11090;SDS011;5599;52.210;21.046;2023-01-30T04:17:01;15.30;;;11.43;;
11090;SDS011;5599;52.210;21.046;2023-01-30T04:19:55;12.80;;;11.33;;
11090;SDS011;5599;52.210;21.046;2023-01-30T04:22:25;14.53;;;11.90;;
11090;SDS011;5599;52.210;21.046;2023-01-30T04:24:54;16.10;;;11.97;;
11090;SDS011;5599;52.210;21.046;2023-01-30T04:27:23;14.47;;;11.30;;
11090;SDS011;5599;52.210;21.046;2023-01-30T04:30:07;14.53;;;11.13;;
11090;SDS011;5599;52.210;21.046;2023-01-30T04:32:38;14.93;;;11.47;;
11090;SDS011;5599;52.210;21.046;2023-01-30T04:35:10;15.17;;;11.13;;
11090;SDS011;5599;52.210;21.046;2023-01-30T04:37:40;13.60;;;11.10;;
11090;SDS011;5599;52.210;21.046;2023-01-30T04:40:12;17.50;;;11.70;;
11090;SDS011;5599;52.210;21.046;2023-01-30T04:42:41;13.40;;;10.63;;
11090;SDS011;5599;52.210;21.046;2023-01-30T04:45:49;13.40;;;10.37;;
11090;SDS011;5599;52.210;21.046;2023-01-30T04:48:19;13.20;;;9.67;;
11090;SDS011;5599;52.210;21.046;2023-01-30T04:50:51;13.90;;;10.57;;
11090;SDS011;5599;52.210;21.046;2023-01-30T04:53:23;13.77;;;9.90;;
11090;SDS011;5599;52.210;21.046;2023-01-30T04:55:53;11.90;;;10.20;;
11090;SDS011;5599;52.210;21.046;2023-01-30T04:58:22;11.13;;;9.73;;
11090;SDS011;5599;52.210;21.046;2023-01-30T05:00:51;11.53;;;9.23;;
11090;SDS011;5599;52.210;21.046;2023-01-30T05:03:21;11.77;;;9.97;;
11090;SDS011;5599;52.210;21.046;2023-01-30T05:05:52;11.67;;;9.10;;
11090;SDS011;5599;52.210;21.046;2023-01-30T05:08:21;11.40;;;9.43;;
11090;SDS011;5599;52.210;21.046;2023-01-30T05:10:50;13.10;;;8.73;;
11090;SDS011;5599;52.210;21.046;2023-01-30T05:13:19;11.87;;;9.47;;
11090;SDS011;5599;52.210;21.046;2023-01-30T05:15:48;10.70;;;9.07;;
11090;SDS011;5599;52.210;21.046;2023-01-30T05:18:18;10.50;;;8.23;;
11090;SDS011;5599;52.210;21.046;2023-01-30T05:20:47;9.97;;;8.20;;
11090;SDS011;5599;52.210;21.046;2023-01-30T05:23:18;9.73;;;8.27;;
11090;SDS011;5599;52.210;21.046;2023-01-30T05:25:47;9.53;;;7.60;;
11090;SDS011;5599;52.210;21.046;2023-01-30T05:28:17;10.57;;;8.60;;
11090;SDS011;5599;52.210;21.046;2023-01-30T05:30:46;10.33;;;8.43;;
11090;SDS011;5599;52.210;21.046;2023-01-30T05:33:15;10.90;;;8.73;;
11090;SDS011;5599;52.210;21.046;2023-01-30T05:35:48;8.57;;;7.53;;
11090;SDS011;5599;52.210;21.046;2023-01-30T05:38:18;10.00;;;8.23;;
11090;SDS011;5599;52.210;21.046;2023-01-30T05:40:56;10.10;;;8.00;;
11090;SDS011;5599;52.210;21.046;2023-01-30T05:43:27;9.90;;;8.00;;
11090;SDS011;5599;52.210;21.046;2023-01-30T05:45:57;10.33;;;8.93;;
11090;SDS011;5599;52.210;21.046;2023-01-30T05:48:27;10.03;;;8.50;;
11090;SDS011;5599;52.210;21.046;2023-01-30T05:50:57;10.83;;;8.67;;
11090;SDS011;5599;52.210;21.046;2023-01-30T05:53:29;13.10;;;8.37;;
11090;SDS011;5599;52.210;21.046;2023-01-30T05:56:02;9.77;;;8.40;;
11090;SDS011;5599;52.210;21.046;2023-01-30T05:58:32;13.03;;;9.00;;
11090;SDS011;5599;52.210;21.046;2023-01-30T06:01:02;10.50;;;8.07;;
11090;SDS011;5599;52.210;21.046;2023-01-30T06:03:33;10.77;;;9.07;;
11090;SDS011;5599;52.210;21.046;2023-01-30T06:06:04;10.13;;;8.67;;
11090;SDS011;5599;52.210;21.046;2023-01-30T06:08:35;9.93;;;8.77;;
11090;SDS011;5599;52.210;21.046;2023-01-30T06:11:05;11.03;;;8.60;;
11090;SDS011;5599;52.210;21.046;2023-01-30T06:13:35;11.10;;;9.50;;
11090;SDS011;5599;52.210;21.046;2023-01-30T06:16:06;11.13;;;9.07;;
11090;SDS011;5599;52.210;21.046;2023-01-30T06:18:36;10.43;;;8.90;;
11090;SDS011;5599;52.210;21.046;2023-01-30T06:21:06;11.33;;;9.33;;
11090;SDS011;5599;52.210;21.046;2023-01-30T06:23:37;11.43;;;9.10;;
11090;SDS011;5599;52.210;21.046;2023-01-30T06:26:06;11.03;;;9.40;;
11090;SDS011;5599;52.210;21.046;2023-01-30T06:28:35;11.53;;;9.67;;
11090;SDS011;5599;52.210;21.046;2023-01-30T06:31:05;10.07;;;8.67;;
11090;SDS011;5599;52.210;21.046;2023-01-30T06:33:35;14.27;;;10.57;;
11090;SDS011;5599;52.210;21.046;2023-01-30T06:36:05;11.77;;;9.67;;
11090;SDS011;5599;52.210;21.046;2023-01-30T06:38:34;13.70;;;9.57;;
11090;SDS011;5599;52.210;21.046;2023-01-30T06:41:05;11.93;;;9.80;;
11090;SDS011;5599;52.210;21.046;2023-01-30T06:43:34;12.17;;;9.50;;
11090;SDS011;5599;52.210;21.046;2023-01-30T06:46:04;11.13;;;9.83;;
11090;SDS011;5599;52.210;21.046;2023-01-30T06:48:33;12.17;;;10.37;;
11090;SDS011;5599;52.210;21.046;2023-01-30T06:51:03;12.30;;;10.40;;
11090;SDS011;5599;52.210;21.046;2023-01-30T06:53:34;12.50;;;9.90;;
11090;SDS011;5599;52.210;21.046;2023-01-30T06:56:05;11.70;;;10.47;;
11090;SDS011;5599;52.210;21.046;2023-01-30T06:58:34;14.17;;;9.77;;
11090;SDS011;5599;52.210;21.046;2023-01-30T07:01:04;11.83;;;9.97;;
11090;SDS011;5599;52.210;21.046;2023-01-30T07:03:33;12.67;;;9.77;;
11090;SDS011;5599;52.210;21.046;2023-01-30T07:06:02;13.90;;;9.73;;
11090;SDS011;5599;52.210;21.046;2023-01-30T07:08:32;12.70;;;9.70;;
11090;SDS011;5599;52.210;21.046;2023-01-30T07:11:04;15.70;;;10.87;;
11090;SDS011;5599;52.210;21.046;2023-01-30T07:13:34;13.07;;;9.80;;
11090;SDS011;5599;52.210;21.046;2023-01-30T07:16:03;11.90;;;10.03;;
11090;SDS011;5599;52.210;21.046;2023-01-30T07:18:33;14.20;;;10.73;;
11090;SDS011;5599;52.210;21.046;2023-01-30T07:21:02;14.77;;;10.30;;
11090;SDS011;5599;52.210;21.046;2023-01-30T07:23:32;13.07;;;11.33;;
11090;SDS011;5599;52.210;21.046;2023-01-30T07:26:02;15.37;;;11.10;;
11090;SDS011;5599;52.210;21.046;2023-01-30T07:28:33;11.97;;;10.23;;
11090;SDS011;5599;52.210;21.046;2023-01-30T07:31:02;14.73;;;10.60;;
11090;SDS011;5599;52.210;21.046;2023-01-30T07:33:32;12.93;;;11.10;;
11090;SDS011;5599;52.210;21.046;2023-01-30T07:36:01;16.13;;;11.20;;
11090;SDS011;5599;52.210;21.046;2023-01-30T07:38:31;13.30;;;10.97;;
11090;SDS011;5599;52.210;21.046;2023-01-30T07:41:00;13.50;;;10.67;;
11090;SDS011;5599;52.210;21.046;2023-01-30T07:43:29;15.50;;;10.67;;
11090;SDS011;5599;52.210;21.046;2023-01-30T07:46:00;14.30;;;11.00;;
11090;SDS011;5599;52.210;21.046;2023-01-30T07:48:30;15.97;;;12.40;;
11090;SDS011;5599;52.210;21.046;2023-01-30T07:50:59;14.83;;;11.27;;
11090;SDS011;5599;52.210;21.046;2023-01-30T07:53:28;15.40;;;11.27;;
11090;SDS011;5599;52.210;21.046;2023-01-30T07:55:57;13.37;;;11.80;;
11090;SDS011;5599;52.210;21.046;2023-01-30T07:58:27;16.20;;;12.23;;
11090;SDS011;5599;52.210;21.046;2023-01-30T08:00:56;14.80;;;12.27;;
11090;SDS011;5599;52.210;21.046;2023-01-30T08:03:27;19.40;;;13.53;;
11090;SDS011;5599;52.210;21.046;2023-01-30T08:05:56;17.60;;;13.73;;
11090;SDS011;5599;52.210;21.046;2023-01-30T08:08:26;18.97;;;13.53;;
11090;SDS011;5599;52.210;21.046;2023-01-30T08:10:55;18.10;;;13.30;;
11090;SDS011;5599;52.210;21.046;2023-01-30T08:13:24;16.73;;;13.70;;
11090;SDS011;5599;52.210;21.046;2023-01-30T08:15:54;16.33;;;13.37;;
11090;SDS011;5599;52.210;21.046;2023-01-30T08:18:28;17.50;;;13.47;;
11090;SDS011;5599;52.210;21.046;2023-01-30T08:20:57;17.83;;;14.10;;
11090;SDS011;5599;52.210;21.046;2023-01-30T08:23:28;20.13;;;14.80;;
11090;SDS011;5599;52.210;21.046;2023-01-30T08:25:57;18.50;;;14.80;;
11090;SDS011;5599;52.210;21.046;2023-01-30T08:28:28;18.13;;;14.43;;
11090;SDS011;5599;52.210;21.046;2023-01-30T08:30:58;22.40;;;15.23;;
11090;SDS011;5599;52.210;21.046;2023-01-30T08:33:29;23.53;;;15.33;;
11090;SDS011;5599;52.210;21.046;2023-01-30T08:35:58;16.90;;;14.30;;
11090;SDS011;5599;52.210;21.046;2023-01-30T08:38:27;22.07;;;15.97;;
11090;SDS011;5599;52.210;21.046;2023-01-30T08:40:57;23.03;;;16.03;;
11090;SDS011;5599;52.210;21.046;2023-01-30T08:43:27;21.10;;;15.33;;
11090;SDS011;5599;52.210;21.046;2023-01-30T08:45:56;20.40;;;15.73;;
11090;SDS011;5599;52.210;21.046;2023-01-30T08:48:25;23.53;;;15.40;;
11090;SDS011;5599;52.210;21.046;2023-01-30T08:51:07;22.30;;;15.97;;
11090;SDS011;5599;52.210;21.046;2023-01-30T08:53:36;27.70;;;15.30;;
11090;SDS011;5599;52.210;21.046;2023-01-30T08:56:06;21.50;;;16.13;;
11090;SDS011;5599;52.210;21.046;2023-01-30T08:58:35;26.63;;;16.63;;
11090;SDS011;5599;52.210;21.046;2023-01-30T09:01:05;21.33;;;16.70;;
11090;SDS011;5599;52.210;21.046;2023-01-30T09:03:34;20.60;;;16.20;;
11090;SDS011;5599;52.210;21.046;2023-01-30T09:06:04;21.87;;;17.03;;
11090;SDS011;5599;52.210;21.046;2023-01-30T09:08:35;23.60;;;16.97;;
11090;SDS011;5599;52.210;21.046;2023-01-30T09:11:04;21.33;;;16.37;;
11090;SDS011;5599;52.210;21.046;2023-01-30T09:13:34;24.10;;;16.43;;
11090;SDS011;5599;52.210;21.046;2023-01-30T09:16:05;22.37;;;16.77;;
11090;SDS011;5599;52.210;21.046;2023-01-30T09:18:36;20.77;;;14.97;;
11090;SDS011;5599;52.210;21.046;2023-01-30T09:21:07;22.30;;;16.07;;
11090;SDS011;5599;52.210;21.046;2023-01-30T09:23:39;20.60;;;16.10;;
11090;SDS011;5599;52.210;21.046;2023-01-30T09:26:08;24.00;;;17.13;;
11090;SDS011;5599;52.210;21.046;2023-01-30T09:28:38;23.90;;;16.83;;
11090;SDS011;5599;52.210;21.046;2023-01-30T09:31:07;19.60;;;16.17;;
11090;SDS011;5599;52.210;21.046;2023-01-30T09:33:36;20.63;;;16.43;;
11090;SDS011;5599;52.210;21.046;2023-01-30T09:36:06;20.70;;;16.23;;
11090;SDS011;5599;52.210;21.046;2023-01-30T09:38:36;19.80;;;16.33;;
11090;SDS011;5599;52.210;21.046;2023-01-30T09:41:25;22.40;;;15.97;;
11090;SDS011;5599;52.210;21.046;2023-01-30T09:44:13;20.17;;;16.17;;
11090;SDS011;5599;52.210;21.046;2023-01-30T09:47:01;19.47;;;15.70;;
11090;SDS011;5599;52.210;21.046;2023-01-30T09:49:37;21.87;;;16.57;;
11090;SDS011;5599;52.210;21.046;2023-01-30T09:52:21;21.80;;;15.87;;
11090;SDS011;5599;52.210;21.046;2023-01-30T09:54:59;18.03;;;15.07;;
11090;SDS011;5599;52.210;21.046;2023-01-30T09:57:39;22.30;;;16.33;;
11090;SDS011;5599;52.210;21.046;2023-01-30T10:00:10;19.33;;;15.50;;
11090;SDS011;5599;52.210;21.046;2023-01-30T10:02:46;18.93;;;15.07;;
11090;SDS011;5599;52.210;21.046;2023-01-30T10:05:20;19.27;;;15.60;;
11090;SDS011;5599;52.210;21.046;2023-01-30T10:08:00;20.03;;;14.63;;
11090;SDS011;5599;52.210;21.046;2023-01-30T10:10:50;19.60;;;14.40;;
11090;SDS011;5599;52.210;21.046;2023-01-30T10:13:50;18.30;;;14.27;;
11090;SDS011;5599;52.210;21.046;2023-01-30T10:16:33;16.47;;;13.50;;
11090;SDS011;5599;52.210;21.046;2023-01-30T10:19:36;18.27;;;13.97;;
11090;SDS011;5599;52.210;21.046;2023-01-30T10:22:19;18.93;;;13.97;;
11090;SDS011;5599;52.210;21.046;2023-01-30T10:25:04;17.33;;;12.93;;
11090;SDS011;5599;52.210;21.046;2023-01-30T10:27:46;19.03;;;14.40;;
11090;SDS011;5599;52.210;21.046;2023-01-30T10:30:19;15.47;;;12.93;;
11090;SDS011;5599;52.210;21.046;2023-01-30T10:32:49;20.97;;;14.10;;
11090;SDS011;5599;52.210;21.046;2023-01-30T10:35:23;17.07;;;13.53;;
11090;SDS011;5599;52.210;21.046;2023-01-30T10:38:02;19.47;;;13.80;;
11090;SDS011;5599;52.210;21.046;2023-01-30T10:40:40;21.60;;;14.40;;
11090;SDS011;5599;52.210;21.046;2023-01-30T10:43:17;16.23;;;13.33;;
11090;SDS011;5599;52.210;21.046;2023-01-30T10:45:52;17.43;;;13.27;;
11090;SDS011;5599;52.210;21.046;2023-01-30T10:48:30;18.83;;;12.77;;
11090;SDS011;5599;52.210;21.046;2023-01-30T10:51:17;18.23;;;13.37;;
11090;SDS011;5599;52.210;21.046;2023-01-30T10:53:53;14.87;;;12.20;;
11090;SDS011;5599;52.210;21.046;2023-01-30T10:56:29;14.43;;;12.77;;
11090;SDS011;5599;52.210;21.046;2023-01-30T10:59:09;17.17;;;13.77;;
11090;SDS011;5599;52.210;21.046;2023-01-30T11:01:52;15.93;;;12.90;;
11090;SDS011;5599;52.210;21.046;2023-01-30T11:04:30;14.87;;;12.30;;
11090;SDS011;5599;52.210;21.046;2023-01-30T11:07:04;16.73;;;13.80;;
11090;SDS011;5599;52.210;21.046;2023-01-30T11:09:37;14.87;;;12.70;;
11090;SDS011;5599;52.210;21.046;2023-01-30T11:12:08;14.70;;;12.77;;
11090;SDS011;5599;52.210;21.046;2023-01-30T11:14:52;14.37;;;12.40;;
11090;SDS011;5599;52.210;21.046;2023-01-30T11:17:28;16.37;;;12.90;;
11090;SDS011;5599;52.210;21.046;2023-01-30T11:20:02;13.97;;;11.83;;
11090;SDS011;5599;52.210;21.046;2023-01-30T11:22:34;16.17;;;11.97;;
11090;SDS011;5599;52.210;21.046;2023-01-30T11:25:05;15.63;;;12.50;;
11090;SDS011;5599;52.210;21.046;2023-01-30T11:27:41;15.23;;;11.50;;
11090;SDS011;5599;52.210;21.046;2023-01-30T11:32:46;13.37;;;10.97;;
11090;SDS011;5599;52.210;21.046;2023-01-30T11:35:24;12.60;;;11.30;;
11090;SDS011;5599;52.210;21.046;2023-01-30T11:37:57;12.27;;;10.97;;
11090;SDS011;5599;52.210;21.046;2023-01-30T11:40:40;13.70;;;11.50;;
11090;SDS011;5599;52.210;21.046;2023-01-30T11:43:10;12.00;;;10.23;;
11090;SDS011;5599;52.210;21.046;2023-01-30T11:45:43;12.93;;;11.40;;
11090;SDS011;5599;52.210;21.046;2023-01-30T11:48:15;12.00;;;9.73;;
11090;SDS011;5599;52.210;21.046;2023-01-30T11:51:07;12.13;;;10.07;;
11090;SDS011;5599;52.210;21.046;2023-01-30T11:53:39;14.23;;;10.60;;
11090;SDS011;5599;52.210;21.046;2023-01-30T11:56:13;12.13;;;10.13;;
11090;SDS011;5599;52.210;21.046;2023-01-30T11:58:45;12.33;;;10.37;;
11090;SDS011;5599;52.210;21.046;2023-01-30T12:01:27;11.37;;;9.60;;
11090;SDS011;5599;52.210;21.046;2023-01-30T12:03:58;12.70;;;11.10;;
11090;SDS011;5599;52.210;21.046;2023-01-30T12:06:30;11.00;;;9.63;;
11090;SDS011;5599;52.210;21.046;2023-01-30T12:09:00;11.60;;;10.00;;
11090;SDS011;5599;52.210;21.046;2023-01-30T12:11:39;11.13;;;9.83;;
11090;SDS011;5599;52.210;21.046;2023-01-30T12:14:16;12.60;;;10.00;;
11090;SDS011;5599;52.210;21.046;2023-01-30T12:16:55;12.10;;;10.10;;
11090;SDS011;5599;52.210;21.046;2023-01-30T12:19:34;11.57;;;10.33;;
11090;SDS011;5599;52.210;21.046;2023-01-30T12:22:15;10.73;;;9.33;;
11090;SDS011;5599;52.210;21.046;2023-01-30T12:24:54;12.73;;;10.53;;
11090;SDS011;5599;52.210;21.046;2023-01-30T12:27:34;10.67;;;9.53;;
11090;SDS011;5599;52.210;21.046;2023-01-30T12:30:19;12.47;;;10.30;;
11090;SDS011;5599;52.210;21.046;2023-01-30T12:32:59;11.07;;;9.80;;
11090;SDS011;5599;52.210;21.046;2023-01-30T12:35:33;14.67;;;10.57;;
11090;SDS011;5599;52.210;21.046;2023-01-30T12:38:21;11.90;;;10.50;;
11090;SDS011;5599;52.210;21.046;2023-01-30T12:41:11;13.23;;;10.03;;
11090;SDS011;5599;52.210;21.046;2023-01-30T12:43:53;12.63;;;10.37;;
11090;SDS011;5599;52.210;21.046;2023-01-30T12:46:36;12.00;;;10.57;;
11090;SDS011;5599;52.210;21.046;2023-01-30T12:49:23;19.80;;;10.97;;
11090;SDS011;5599;52.210;21.046;2023-01-30T12:52:10;12.33;;;10.53;;
11090;SDS011;5599;52.210;21.046;2023-01-30T12:54:56;11.10;;;10.00;;
11090;SDS011;5599;52.210;21.046;2023-01-30T12:57:34;11.67;;;10.23;;
11090;SDS011;5599;52.210;21.046;2023-01-30T13:00:22;14.30;;;11.00;;
11090;SDS011;5599;52.210;21.046;2023-01-30T13:03:11;13.10;;;10.50;;
11090;SDS011;5599;52.210;21.046;2023-01-30T13:05:58;14.60;;;10.80;;
11090;SDS011;5599;52.210;21.046;2023-01-30T13:08:38;13.67;;;10.97;;
11090;SDS011;5599;52.210;21.046;2023-01-30T13:11:23;14.03;;;10.33;;
11090;SDS011;5599;52.210;21.046;2023-01-30T13:14:04;12.37;;;10.40;;
11090;SDS011;5599;52.210;21.046;2023-01-30T13:16:44;13.00;;;10.97;;
11090;SDS011;5599;52.210;21.046;2023-01-30T13:19:28;12.23;;;10.77;;
11090;SDS011;5599;52.210;21.046;2023-01-30T13:22:10;11.80;;;10.60;;
11090;SDS011;5599;52.210;21.046;2023-01-30T13:24:48;12.03;;;10.73;;
11090;SDS011;5599;52.210;21.046;2023-01-30T13:27:26;13.70;;;10.90;;
11090;SDS011;5599;52.210;21.046;2023-01-30T13:29:58;14.93;;;11.57;;
11090;SDS011;5599;52.210;21.046;2023-01-30T13:32:33;12.63;;;11.30;;
11090;SDS011;5599;52.210;21.046;2023-01-30T13:35:05;13.93;;;11.50;;
11090;SDS011;5599;52.210;21.046;2023-01-30T13:37:45;16.70;;;11.80;;
11090;SDS011;5599;52.210;21.046;2023-01-30T13:40:17;15.57;;;13.37;;
11090;SDS011;5599;52.210;21.046;2023-01-30T13:42:51;16.20;;;13.30;;
11090;SDS011;5599;52.210;21.046;2023-01-30T13:45:25;13.27;;;11.60;;
11090;SDS011;5599;52.210;21.046;2023-01-30T13:48:01;15.70;;;12.37;;
11090;SDS011;5599;52.210;21.046;2023-01-30T13:50:45;20.23;;;12.47;;
11090;SDS011;5599;52.210;21.046;2023-01-30T13:53:26;15.17;;;13.20;;
11090;SDS011;5599;52.210;21.046;2023-01-30T13:56:01;15.60;;;12.70;;
11090;SDS011;5599;52.210;21.046;2023-01-30T13:58:57;14.87;;;12.00;;
11090;SDS011;5599;52.210;21.046;2023-01-30T14:04:43;13.17;;;11.80;;
11090;SDS011;5599;52.210;21.046;2023-01-30T14:07:15;16.67;;;13.10;;
11090;SDS011;5599;52.210;21.046;2023-01-30T14:12:50;17.03;;;13.43;;
11090;SDS011;5599;52.210;21.046;2023-01-30T14:15:22;13.57;;;12.17;;
11090;SDS011;5599;52.210;21.046;2023-01-30T14:17:55;16.63;;;12.83;;
11090;SDS011;5599;52.210;21.046;2023-01-30T14:20:26;18.87;;;13.60;;
11090;SDS011;5599;52.210;21.046;2023-01-30T14:22:58;15.33;;;13.37;;
11090;SDS011;5599;52.210;21.046;2023-01-30T14:43:25;15.03;;;11.80;;
11090;SDS011;5599;52.210;21.046;2023-01-30T14:46:03;13.57;;;11.77;;
11090;SDS011;5599;52.210;21.046;2023-01-30T14:48:37;16.80;;;12.90;;
11090;SDS011;5599;52.210;21.046;2023-01-30T14:51:11;15.03;;;13.00;;
11090;SDS011;5599;52.210;21.046;2023-01-30T14:53:50;14.23;;;12.57;;
11090;SDS011;5599;52.210;21.046;2023-01-30T14:56:34;16.20;;;13.30;;
11090;SDS011;5599;52.210;21.046;2023-01-30T14:59:09;16.67;;;12.27;;
11090;SDS011;5599;52.210;21.046;2023-01-30T15:01:58;22.83;;;13.80;;
11090;SDS011;5599;52.210;21.046;2023-01-30T15:04:31;13.20;;;11.77;;
11090;SDS011;5599;52.210;21.046;2023-01-30T15:07:08;16.73;;;12.80;;
11090;SDS011;5599;52.210;21.046;2023-01-30T15:09:41;16.83;;;13.17;;
11090;SDS011;5599;52.210;21.046;2023-01-30T15:12:33;14.80;;;12.77;;
11090;SDS011;5599;52.210;21.046;2023-01-30T15:15:17;18.83;;;13.37;;
11090;SDS011;5599;52.210;21.046;2023-01-30T15:17:57;17.93;;;13.10;;
11090;SDS011;5599;52.210;21.046;2023-01-30T15:20:39;18.97;;;13.97;;
11090;SDS011;5599;52.210;21.046;2023-01-30T15:23:32;14.13;;;12.63;;
11090;SDS011;5599;52.210;21.046;2023-01-30T15:26:18;15.17;;;12.57;;
11090;SDS011;5599;52.210;21.046;2023-01-30T15:29:01;16.33;;;12.60;;
11090;SDS011;5599;52.210;21.046;2023-01-30T15:31:54;16.73;;;13.30;;
11090;SDS011;5599;52.210;21.046;2023-01-30T15:34:26;15.13;;;12.07;;
11090;SDS011;5599;52.210;21.046;2023-01-30T15:36:56;13.27;;;11.87;;
11090;SDS011;5599;52.210;21.046;2023-01-30T15:39:27;14.17;;;12.63;;